Time;durP1;ratioP1;P1;durP2;ratioP2;P2;SDS_P1;SDS_P2;PMS_P1;PMS_P2;Temp;Humidity;BMP_temperature;BMP_pressure;BME280_temperature;BME280_humidity;BME280_pressure;Samples;Min_cycle;Max_cycle;Signal;HPM_P1;HPM_P2
2023/02/19 00:01:26;;;;;;;1.85;1.00;;;11.60;99.90;;;;;;4886000;29;20063;-79
2023/02/19 00:03:57;;;;;;;1.35;0.90;;;11.60;99.90;;;;;;4903066;29;20028;-78
2023/02/19 00:06:25;;;;;;;1.45;0.75;;;11.60;99.90;;;;;;4887707;29;20474;-79
2023/02/19 00:08:50;;;;;;;2.15;0.85;;;11.60;99.90;;;;;;4893337;29;20027;-79
2023/02/19 00:11:19;;;;;;;1.05;0.90;;;11.60;99.90;;;;;;4902676;29;20033;-78
2023/02/19 00:13:47;;;;;;;0.90;0.60;;;11.50;99.90;;;;;;4886371;29;20111;-77
2023/02/19 00:16:20;;;;;;;1.00;0.80;;;11.50;99.90;;;;;;4902734;29;20032;-78
2023/02/19 00:18:46;;;;;;;0.90;0.70;;;11.60;99.90;;;;;;4902553;29;20025;-77
2023/02/19 00:21:13;;;;;;;0.68;0.60;;;11.60;99.90;;;;;;4902538;29;20064;-78
2023/02/19 00:23:38;;;;;;;1.60;0.90;;;11.50;99.90;;;;;;4902666;29;20498;-78
2023/02/19 00:26:07;;;;;;;1.83;0.70;;;11.50;99.90;;;;;;4902651;29;20111;-78
2023/02/19 00:28:33;;;;;;;1.27;0.70;;;11.50;99.90;;;;;;4902595;29;20028;-78
2023/02/19 00:31:04;;;;;;;1.00;0.73;;;11.50;99.90;;;;;;4902526;29;20060;-77
2023/02/19 00:33:30;;;;;;;1.23;0.80;;;11.50;99.90;;;;;;4885397;29;20029;-80
2023/02/19 00:36:02;;;;;;;1.73;0.80;;;11.50;99.90;;;;;;4890479;29;20446;-80
2023/02/19 00:38:28;;;;;;;2.08;0.68;;;11.50;99.90;;;;;;4889854;29;20076;-80
2023/02/19 00:40:54;;;;;;;1.30;0.68;;;11.50;99.90;;;;;;4901807;29;20036;-78
2023/02/19 00:43:20;;;;;;;1.25;0.60;;;11.60;99.90;;;;;;4885499;29;20028;-78
2023/02/19 00:45:45;;;;;;;1.40;0.80;;;11.50;99.90;;;;;;4902561;29;20038;-78
2023/02/19 00:48:11;;;;;;;1.00;0.75;;;11.50;99.90;;;;;;4902145;29;20461;-79
2023/02/19 00:50:37;;;;;;;2.20;0.93;;;11.50;99.90;;;;;;4902165;29;20032;-79
2023/02/19 00:53:02;;;;;;;1.15;0.70;;;11.50;99.90;;;;;;4902482;29;20031;-78
2023/02/19 00:59:07;;;;;;;2.85;0.98;;;11.50;99.90;;;;;;4902064;29;20080;-83
2023/02/19 01:02:02;;;;;;;2.63;0.75;;;11.50;99.90;;;;;;4885200;29;20036;-83
2023/02/19 01:04:54;;;;;;;2.47;0.60;;;11.50;99.90;;;;;;4891745;29;20041;-83
2023/02/19 01:07:24;;;;;;;0.70;0.60;;;11.50;99.90;;;;;;4887029;29;20450;-82
2023/02/19 01:09:53;;;;;;;1.73;0.90;;;11.60;99.90;;;;;;4873793;29;20040;-83
2023/02/19 01:12:18;;;;;;;1.60;0.60;;;11.60;99.90;;;;;;4885508;29;20033;-82
2023/02/19 01:14:44;;;;;;;1.10;0.70;;;11.50;99.90;;;;;;4885485;29;20035;-82
2023/02/19 01:17:20;;;;;;;0.90;0.68;;;11.50;99.90;;;;;;4885047;29;20032;-82
2023/02/19 01:20:42;;;;;;;;;;;;;;;;;;;;;
2023/02/19 01:23:30;;;;;;;0.77;0.50;;;11.40;99.90;;;;;;4887467;29;20096;-82
2023/02/19 01:26:27;;;;;;;1.00;0.63;;;11.50;99.90;;;;;;4901229;29;20084;-81
2023/02/19 01:29:06;;;;;;;1.23;0.60;;;11.50;99.90;;;;;;4894919;29;20271;-81
2023/02/19 01:36:01;;;;;;;1.20;0.75;;;11.40;99.90;;;;;;4894758;29;20025;-81
2023/02/19 01:38:27;;;;;;;1.67;0.80;;;11.40;99.90;;;;;;4881386;29;20459;-81
2023/02/19 01:40:59;;;;;;;0.88;0.60;;;11.30;99.90;;;;;;4897073;29;20037;-81
2023/02/19 01:43:25;;;;;;;1.27;0.60;;;11.30;99.90;;;;;;4901482;29;20033;-80
2023/02/19 01:45:51;;;;;;;1.73;0.68;;;11.30;99.90;;;;;;4901828;29;20037;-82
2023/02/19 01:48:24;;;;;;;1.40;0.90;;;11.30;99.90;;;;;;4901788;29;20450;-82
2023/02/19 01:50:58;;;;;;;0.95;0.90;;;11.30;99.90;;;;;;4885653;29;20441;-82
2023/02/19 01:53:27;;;;;;;1.85;0.85;;;11.30;99.90;;;;;;4905646;29;20025;-81
2023/02/19 01:55:57;;;;;;;1.10;0.77;;;11.30;99.90;;;;;;4888653;29;20055;-81
2023/02/19 01:58:27;;;;;;;1.10;0.70;;;11.30;99.90;;;;;;4888399;29;20028;-81
2023/02/19 02:00:53;;;;;;;1.85;0.65;;;11.30;99.90;;;;;;4905265;29;20031;-81
2023/02/19 02:03:19;;;;;;;1.73;0.90;;;11.20;99.90;;;;;;4888525;29;20037;-80
2023/02/19 02:05:53;;;;;;;1.30;0.85;;;11.20;99.90;;;;;;4904937;29;20025;-80
2023/02/19 02:11:19;;;;;;;;;;;;;;;;;;;;;
2023/02/19 02:14:32;;;;;;;;;;;;;;;;;;;;;
2023/02/19 02:17:13;;;;;;;1.40;0.80;;;11.10;99.90;;;;;;4898525;29;20565;-79
2023/02/19 02:19:58;;;;;;;1.02;0.93;;;11.20;99.90;;;;;;4893301;29;20031;-79
2023/02/19 02:22:33;;;;;;;1.80;1.10;;;11.20;99.90;;;;;;4904735;29;20092;-80
2023/02/19 02:25:14;;;;;;;1.98;0.80;;;11.20;99.90;;;;;;4905081;29;20028;-80
2023/02/19 02:28:13;;;;;;;1.80;0.80;;;11.10;99.90;;;;;;4904572;29;20033;-80
2023/02/19 02:30:48;;;;;;;1.70;0.95;;;11.10;99.90;;;;;;4887867;29;20038;-80
2023/02/19 02:33:22;;;;;;;1.80;0.80;;;11.10;99.90;;;;;;4887929;29;20029;-80
2023/02/19 02:35:56;;;;;;;1.80;0.85;;;11.10;99.90;;;;;;4908447;29;20028;-80
2023/02/19 02:38:27;;;;;;;1.20;0.88;;;11.00;99.90;;;;;;4893133;29;20111;-79
2023/02/19 02:40:54;;;;;;;0.80;0.70;;;11.10;99.90;;;;;;4887579;29;20028;-81
2023/02/19 02:43:20;;;;;;;0.90;0.80;;;11.00;99.90;;;;;;4904293;29;20494;-81
2023/02/19 02:45:46;;;;;;;2.15;0.68;;;11.10;99.90;;;;;;4904753;29;20482;-81
2023/02/19 02:48:30;;;;;;;1.30;0.77;;;11.10;99.90;;;;;;4887356;29;20033;-81
2023/02/19 02:51:23;;;;;;;1.20;0.70;;;11.10;99.90;;;;;;4887370;29;20044;-79
2023/02/19 02:56:42;;;;;;;1.42;0.90;;;11.10;99.90;;;;;;4904146;29;20031;-80
2023/02/19 02:59:11;;;;;;;1.48;0.75;;;11.00;99.90;;;;;;4904493;29;20028;-81
2023/02/19 03:02:10;;;;;;;2.60;0.70;;;11.00;99.90;;;;;;4887271;29;20025;-81
2023/02/19 03:07:59;;;;;;;1.48;0.88;;;11.00;99.90;;;;;;4891257;29;20081;-78
2023/02/19 03:10:49;;;;;;;2.55;0.70;;;11.00;99.90;;;;;;4887553;29;20084;-77
2023/02/19 03:19:19;;;;;;;1.58;0.80;;;11.10;99.90;;;;;;4903978;29;20100;-78
2023/02/19 03:22:09;;;;;;;1.00;0.80;;;11.20;99.90;;;;;;4886724;29;20056;-77
2023/02/19 03:38:40;;;;;;;2.10;0.90;;;11.20;99.90;;;;;;5937023;23;20014;-80
2023/02/19 03:41:17;;;;;;;0.90;0.60;;;11.20;99.90;;;;;;4895040;29;20028;-80
2023/02/19 03:44:02;;;;;;;1.83;1.00;;;11.20;99.90;;;;;;4903401;29;20482;-81
2023/02/19 03:46:50;;;;;;;1.00;0.82;;;11.10;99.90;;;;;;4903347;29;20545;-81
2023/02/19 03:49:40;;;;;;;2.72;0.75;;;11.10;99.90;;;;;;4886843;29;20032;-81
2023/02/19 03:52:40;;;;;;;1.00;0.65;;;11.30;99.90;;;;;;4893712;29;20576;-78
2023/02/19 03:55:18;;;;;;;0.80;0.60;;;11.30;99.90;;;;;;4896097;29;20043;-78
2023/02/19 03:58:14;;;;;;;1.15;0.70;;;11.30;99.90;;;;;;4886132;29;20493;-78
2023/02/19 04:00:51;;;;;;;0.68;0.52;;;11.30;99.90;;;;;;4897245;29;20545;-84
2023/02/19 04:03:35;;;;;;;1.10;0.75;;;11.40;99.90;;;;;;4902833;29;20044;-83
2023/02/19 04:06:07;;;;;;;0.90;0.63;;;11.40;99.90;;;;;;4886119;29;20057;-83
2023/02/19 04:08:37;;;;;;;1.90;0.80;;;11.30;99.90;;;;;;4903021;29;20111;-84
2023/02/19 04:11:07;;;;;;;2.72;0.77;;;11.40;99.90;;;;;;4888254;29;20044;-83
2023/02/19 04:13:42;;;;;;;1.80;0.73;;;11.30;99.90;;;;;;4885784;29;20116;-83
2023/02/19 04:16:16;;;;;;;1.20;0.90;;;11.30;99.90;;;;;;4902044;29;20025;-82
2023/02/19 04:18:58;;;;;;;1.58;0.93;;;11.30;99.90;;;;;;4915705;29;20106;-82
2023/02/19 04:21:27;;;;;;;2.55;0.73;;;11.20;99.90;;;;;;4904224;29;20032;-81
2023/02/19 04:23:55;;;;;;;1.00;0.65;;;11.30;99.90;;;;;;4921591;29;20029;-82
2023/02/19 04:26:21;;;;;;;1.33;0.63;;;11.30;99.90;;;;;;4904689;29;20453;-82
2023/02/19 04:28:47;;;;;;;2.10;0.80;;;11.30;99.90;;;;;;4901961;29;20110;-81
2023/02/19 04:31:13;;;;;;;2.03;0.68;;;11.30;99.90;;;;;;4885855;29;20036;-82
2023/02/19 04:33:39;;;;;;;1.80;0.70;;;11.30;99.90;;;;;;4902656;29;20459;-82
2023/02/19 04:36:06;;;;;;;0.82;0.52;;;11.30;99.90;;;;;;4894792;29;20059;-82
2023/02/19 04:38:31;;;;;;;1.38;0.52;;;11.30;99.90;;;;;;4905754;29;20012;-82
2023/02/19 04:40:57;;;;;;;1.60;0.70;;;11.30;99.90;;;;;;4885843;29;20442;-82
2023/02/19 04:43:23;;;;;;;1.08;0.60;;;11.40;99.90;;;;;;4902051;29;20033;-82
2023/02/19 04:45:48;;;;;;;1.15;0.60;;;11.30;99.90;;;;;;4902264;29;20063;-82
2023/02/19 04:48:37;;;;;;;0.98;0.47;;;11.40;99.90;;;;;;4885660;29;20441;-81
2023/02/19 04:51:42;;;;;;;1.25;0.40;;;11.30;99.90;;;;;;4913939;29;20040;-82
2023/02/19 04:54:54;;;;;;;;;;;;;;;;;;;;;
2023/02/19 05:03:27;;;;;;;1.25;0.40;;;11.40;99.90;;;;;;4910582;29;20101;-82
2023/02/19 05:05:53;;;;;;;1.45;0.43;;;11.40;99.90;;;;;;4920670;29;20481;-81
2023/02/19 05:08:18;;;;;;;1.17;0.38;;;11.50;99.90;;;;;;4913691;29;20052;-81
2023/02/19 05:10:44;;;;;;;1.70;0.40;;;11.50;99.90;;;;;;4888684;29;20051;-82
2023/02/19 05:13:10;;;;;;;1.33;0.40;;;11.50;99.90;;;;;;4914090;29;20029;-82
2023/02/19 05:16:50;;;;;;;;;;;;;;;;;;;;;
2023/02/19 05:27:07;;;;;;;;;;;;;;;;;;;;;
2023/02/19 05:29:33;;;;;;;2.40;0.63;;;11.40;99.90;;;;;;4722657;30;20049;-80
2023/02/19 05:31:59;;;;;;;4.15;0.75;;;11.40;99.90;;;;;;4789983;29;20536;-79
2023/02/19 05:34:25;;;;;;;2.28;0.63;;;11.40;99.90;;;;;;4801784;29;20126;-79
2023/02/19 05:36:50;;;;;;;2.30;0.50;;;11.30;99.90;;;;;;4875818;29;20043;-79
2023/02/19 05:39:16;;;;;;;3.65;0.98;;;11.30;99.90;;;;;;4905675;29;20044;-80
2023/02/19 05:41:44;;;;;;;1.90;0.47;;;11.30;99.90;;;;;;4888813;29;20025;-80
2023/02/19 05:44:10;;;;;;;2.35;0.70;;;11.30;99.90;;;;;;4905647;29;20028;-80
2023/02/19 05:46:36;;;;;;;3.30;0.75;;;11.30;99.90;;;;;;4905479;29;20639;-79
2023/02/19 05:49:02;;;;;;;1.58;0.80;;;11.40;99.90;;;;;;4905715;29;20034;-79
2023/02/19 05:51:28;;;;;;;2.53;0.73;;;11.30;99.90;;;;;;4888322;29;20032;-78
2023/02/19 05:53:55;;;;;;;3.05;0.85;;;11.30;99.90;;;;;;4905467;29;20067;-78
2023/02/19 05:56:30;;;;;;;3.30;0.80;;;11.20;99.90;;;;;;4888382;29;20549;-79
2023/02/19 05:58:56;;;;;;;2.00;0.70;;;11.20;99.90;;;;;;4888377;29;20434;-78
2023/02/19 06:01:25;;;;;;;1.75;0.60;;;11.20;99.90;;;;;;4888163;29;20031;-79
2023/02/19 06:03:52;;;;;;;2.20;0.50;;;11.20;99.90;;;;;;4888584;29;20096;-79
2023/02/19 06:06:18;;;;;;;3.60;0.73;;;11.10;99.90;;;;;;4892040;29;20036;-80
2023/02/19 06:08:45;;;;;;;4.13;0.73;;;11.10;99.90;;;;;;4905657;29;20040;-79
2023/02/19 06:11:10;;;;;;;3.90;0.63;;;11.00;99.90;;;;;;4891410;29;20024;-81
2023/02/19 06:13:36;;;;;;;1.30;0.60;;;11.00;99.90;;;;;;4888131;29;20051;-80
2023/02/19 06:16:08;;;;;;;1.50;0.40;;;10.90;99.90;;;;;;4904831;29;20020;-81
2023/02/19 06:18:34;;;;;;;1.95;0.50;;;10.90;99.90;;;;;;4916284;29;20028;-81
2023/02/19 06:21:04;;;;;;;2.72;0.52;;;10.90;99.90;;;;;;4901530;29;20059;-80
2023/02/19 06:23:44;;;;;;;;;;;;;;;;;;;;;
2023/02/19 06:26:10;;;;;;;3.00;0.50;;;10.90;99.90;;;;;;4904807;29;20116;-81
2023/02/19 06:28:36;;;;;;;2.30;0.60;;;10.90;99.90;;;;;;4887754;29;20048;-81
2023/02/19 06:31:02;;;;;;;5.25;0.63;;;10.80;99.90;;;;;;4888025;29;20478;-81
2023/02/19 06:33:28;;;;;;;3.45;0.50;;;10.80;99.90;;;;;;4900118;29;20135;-79
2023/02/19 06:35:57;;;;;;;3.40;0.50;;;10.80;99.90;;;;;;4911904;29;20028;-80
2023/02/19 06:38:23;;;;;;;2.42;0.60;;;10.80;99.90;;;;;;4908434;29;20025;-82
2023/02/19 06:40:51;;;;;;;3.33;0.60;;;10.80;99.90;;;;;;4904599;29;20367;-82
2023/02/19 06:43:16;;;;;;;2.03;0.60;;;10.80;99.90;;;;;;4887539;29;20061;-80
2023/02/19 06:45:42;;;;;;;3.88;0.70;;;10.80;99.90;;;;;;4904550;29;20049;-81
2023/02/19 06:48:08;;;;;;;2.45;0.82;;;10.80;99.90;;;;;;4904082;29;20025;-80
2023/02/19 06:50:34;;;;;;;3.45;0.50;;;10.80;99.90;;;;;;4904426;29;20064;-80
2023/02/19 06:52:59;;;;;;;3.55;0.50;;;10.80;99.90;;;;;;4904280;29;20092;-81
2023/02/19 06:55:25;;;;;;;4.78;0.85;;;10.80;99.90;;;;;;4904347;29;20390;-79
2023/02/19 06:57:51;;;;;;;1.98;0.60;;;10.80;99.90;;;;;;4904151;29;20505;-79
2023/02/19 07:00:17;;;;;;;2.05;0.55;;;10.80;99.90;;;;;;4904372;29;20400;-79
2023/02/19 07:02:42;;;;;;;1.67;0.40;;;10.70;99.90;;;;;;4886901;29;20033;-79
2023/02/19 07:05:08;;;;;;;1.92;0.60;;;10.80;99.90;;;;;;4904110;29;20153;-80
2023/02/19 07:07:34;;;;;;;3.30;0.68;;;10.80;99.90;;;;;;4905133;29;20032;-79
2023/02/19 07:10:00;;;;;;;2.53;0.88;;;10.80;99.90;;;;;;4887107;29;20036;-79
2023/02/19 07:12:25;;;;;;;1.92;0.52;;;10.70;99.90;;;;;;4906771;29;20028;-79
2023/02/19 07:14:51;;;;;;;2.30;0.38;;;10.70;99.90;;;;;;4887021;29;20021;-79
2023/02/19 07:17:17;;;;;;;1.98;0.70;;;10.80;99.90;;;;;;4888042;29;20562;-80
2023/02/19 07:19:42;;;;;;;3.92;1.15;;;10.70;99.90;;;;;;4905797;29;20028;-79
2023/02/19 07:22:08;;;;;;;2.78;0.75;;;10.70;99.90;;;;;;4905665;29;20032;-79
2023/02/19 07:24:34;;;;;;;2.65;0.82;;;10.70;99.90;;;;;;4906522;29;20119;-79
2023/02/19 07:26:59;;;;;;;3.33;0.60;;;10.80;99.90;;;;;;4922557;29;20091;-79
2023/02/19 07:29:25;;;;;;;1.95;0.50;;;10.80;99.90;;;;;;4922762;29;20397;-79
2023/02/19 07:31:51;;;;;;;3.13;0.70;;;10.80;99.90;;;;;;4920676;29;20119;-80
2023/02/19 07:34:16;;;;;;;2.38;0.70;;;10.80;99.90;;;;;;4903620;29;20025;-82
2023/02/19 07:36:42;;;;;;;2.38;0.60;;;10.80;99.90;;;;;;4912735;29;20057;-82
2023/02/19 07:39:11;;;;;;;1.88;0.60;;;10.80;99.90;;;;;;4887038;29;20383;-82
2023/02/19 07:41:37;;;;;;;1.67;0.60;;;10.80;99.90;;;;;;4886638;29;20032;-80
2023/02/19 07:44:03;;;;;;;1.48;0.55;;;10.80;99.90;;;;;;4903373;29;20032;-80
2023/02/19 07:46:29;;;;;;;1.50;0.50;;;10.70;99.90;;;;;;4903180;29;20486;-80
2023/02/19 07:48:55;;;;;;;3.28;0.52;;;10.70;99.90;;;;;;4886432;29;20040;-80
2023/02/19 07:51:21;;;;;;;1.85;0.38;;;10.70;99.90;;;;;;4902883;29;20032;-80
2023/02/19 07:53:51;;;;;;;2.50;1.17;;;10.80;99.90;;;;;;4903320;29;20017;-81
2023/02/19 07:56:18;;;;;;;3.08;0.60;;;10.80;99.90;;;;;;4886426;29;20474;-81
2023/02/19 07:58:45;;;;;;;2.47;0.88;;;10.80;99.90;;;;;;4903053;29;20053;-81
2023/02/19 08:01:16;;;;;;;1.95;0.60;;;10.80;99.90;;;;;;4902955;29;20033;-80
2023/02/19 08:03:43;;;;;;;1.48;0.52;;;10.90;99.90;;;;;;4902915;29;20461;-77
2023/02/19 08:06:10;;;;;;;4.22;0.80;;;10.90;99.90;;;;;;4902755;29;20410;-79
2023/02/19 08:08:36;;;;;;;2.88;0.70;;;10.90;99.90;;;;;;4911977;29;20143;-80
2023/02/19 08:13:49;;;;;;;2.05;0.60;;;11.00;99.90;;;;;;4903206;29;20054;-81
2023/02/19 08:16:18;;;;;;;3.22;0.75;;;11.00;99.90;;;;;;4902929;29;20092;-81
2023/02/19 08:18:47;;;;;;;2.00;0.73;;;11.00;99.90;;;;;;4898568;29;20031;-82
2023/02/19 08:21:13;;;;;;;3.17;0.80;;;10.90;99.90;;;;;;4904743;29;20028;-81
2023/02/19 08:23:39;;;;;;;2.30;0.73;;;11.00;99.90;;;;;;4904841;29;20115;-82
2023/02/19 08:26:05;;;;;;;0.95;0.38;;;11.00;99.90;;;;;;4904729;29;20089;-81
2023/02/19 08:28:31;;;;;;;4.07;0.60;;;11.00;99.90;;;;;;4904428;29;20064;-81
2023/02/19 08:31:00;;;;;;;2.13;0.68;;;11.00;99.90;;;;;;4904573;29;20485;-81
2023/02/19 08:33:26;;;;;;;3.35;0.90;;;10.90;99.90;;;;;;4904256;29;20035;-81
2023/02/19 08:35:51;;;;;;;3.13;0.75;;;11.00;99.90;;;;;;4921246;29;20016;-81
2023/02/19 08:38:40;;;;;;;2.83;0.70;;;11.00;99.90;;;;;;4897642;29;20040;-82
2023/02/19 08:41:12;;;;;;;1.77;0.50;;;11.00;99.90;;;;;;4885874;29;20520;-81
2023/02/19 08:43:41;;;;;;;1.60;0.70;;;11.00;99.90;;;;;;4885626;29;20036;-82
2023/02/19 08:46:11;;;;;;;3.30;0.63;;;11.10;99.90;;;;;;4889848;29;20111;-82
2023/02/19 08:48:37;;;;;;;2.85;0.75;;;11.20;99.90;;;;;;4886423;29;20071;-80
2023/02/19 08:51:07;;;;;;;3.53;0.80;;;11.10;99.90;;;;;;4901924;29;20562;-77
2023/02/19 08:53:33;;;;;;;2.17;0.70;;;11.10;99.90;;;;;;4902019;29;20032;-81
2023/02/19 08:56:08;;;;;;;1.60;0.60;;;11.10;99.90;;;;;;4885450;29;20115;-81
2023/02/19 08:58:34;;;;;;;1.35;0.47;;;11.10;99.90;;;;;;4885602;29;20031;-81
2023/02/19 09:00:59;;;;;;;3.97;0.60;;;11.10;99.90;;;;;;4885010;29;20440;-81
2023/02/19 09:03:25;;;;;;;1.88;0.50;;;11.10;99.90;;;;;;4901959;29;20032;-83
2023/02/19 09:05:51;;;;;;;2.10;0.45;;;11.10;99.90;;;;;;4885153;29;20044;-83
2023/02/19 09:08:18;;;;;;;1.75;0.50;;;11.10;99.90;;;;;;4905036;29;20029;-83
2023/02/19 09:10:44;;;;;;;2.45;0.50;;;11.20;99.90;;;;;;4888507;29;20417;-83
2023/02/19 09:13:09;;;;;;;4.05;0.70;;;11.20;99.90;;;;;;4885463;29;20081;-83
2023/02/19 09:15:37;;;;;;;2.55;0.60;;;11.30;99.90;;;;;;4885325;29;20021;-83
2023/02/19 09:18:03;;;;;;;1.63;0.50;;;11.30;99.90;;;;;;4908927;29;20076;-83
2023/02/19 09:20:28;;;;;;;2.45;0.60;;;11.40;99.90;;;;;;4907013;29;20028;-83
2023/02/19 09:22:58;;;;;;;2.40;0.60;;;11.40;99.90;;;;;;4902078;29;20040;-82
2023/02/19 09:25:24;;;;;;;2.55;0.80;;;11.30;99.90;;;;;;4901831;29;20028;-82
2023/02/19 09:27:54;;;;;;;1.75;0.50;;;11.40;99.90;;;;;;4898623;29;20040;-81
2023/02/19 09:30:21;;;;;;;2.50;0.88;;;11.40;99.90;;;;;;4902015;29;20534;-80
2023/02/19 09:32:46;;;;;;;2.40;0.80;;;11.50;99.90;;;;;;4901692;29;20033;-80
2023/02/19 09:35:12;;;;;;;1.67;0.50;;;11.50;99.90;;;;;;4901572;29;20031;-80
2023/02/19 09:37:38;;;;;;;2.05;0.65;;;11.50;99.90;;;;;;4913796;29;20028;-79
2023/02/19 09:40:04;;;;;;;3.55;0.68;;;11.60;99.90;;;;;;4906331;29;20092;-79
2023/02/19 09:42:31;;;;;;;2.13;0.50;;;11.50;99.90;;;;;;4901756;29;20041;-79
2023/02/19 09:44:59;;;;;;;2.63;0.50;;;11.60;99.90;;;;;;4901729;29;20036;-79
2023/02/19 09:47:33;;;;;;;3.03;0.68;;;11.60;99.90;;;;;;4891508;29;20405;-79
2023/02/19 09:50:05;;;;;;;2.25;0.70;;;11.60;99.90;;;;;;4887834;29;20056;-79
2023/02/19 09:52:44;;;;;;;2.28;0.50;;;11.60;99.90;;;;;;4901686;29;20043;-79
2023/02/19 09:55:14;;;;;;;2.13;0.47;;;11.60;99.90;;;;;;4901540;29;20393;-79
2023/02/19 09:57:40;;;;;;;2.13;0.70;;;11.70;99.90;;;;;;4885443;29;20035;-81
2023/02/19 10:00:10;;;;;;;2.35;0.85;;;11.70;99.90;;;;;;4918121;29;20063;-82
2023/02/19 10:02:36;;;;;;;3.45;0.80;;;11.80;99.90;;;;;;4902389;29;20043;-81
2023/02/19 10:05:02;;;;;;;2.17;0.55;;;11.80;99.90;;;;;;4884755;29;20112;-80
2023/02/19 10:07:43;;;;;;;1.85;0.55;;;11.80;99.90;;;;;;4911422;29;20485;-80
2023/02/19 10:10:11;;;;;;;1.55;0.57;;;11.80;99.90;;;;;;4892643;29;20040;-82
2023/02/19 10:12:49;;;;;;;2.30;0.60;;;11.80;99.90;;;;;;4889416;29;20104;-73
2023/02/19 10:15:35;;;;;;;1.77;0.63;;;11.90;99.90;;;;;;4904865;29;20016;-73
2023/02/19 10:18:03;;;;;;;1.60;0.50;;;11.90;99.90;;;;;;4912183;29;20029;-76
2023/02/19 10:20:29;;;;;;;0.82;0.47;;;11.90;99.90;;;;;;4904604;29;20020;-70
2023/02/19 10:23:02;;;;;;;1.63;0.50;;;11.80;99.90;;;;;;4887892;29;20037;-70
2023/02/19 10:25:30;;;;;;;1.00;0.60;;;11.80;99.90;;;;;;4887801;29;20075;-70
2023/02/19 10:28:00;;;;;;;1.85;0.75;;;11.80;99.90;;;;;;4887775;29;20036;-70
2023/02/19 10:30:32;;;;;;;3.10;0.60;;;11.90;99.90;;;;;;4904244;29;20036;-76
2023/02/19 10:33:10;;;;;;;2.03;0.63;;;11.90;99.90;;;;;;4893591;29;20101;-73
2023/02/19 10:35:49;;;;;;;0.90;0.50;;;12.00;99.90;;;;;;4910682;29;20029;-70
2023/02/19 10:38:17;;;;;;;2.55;0.60;;;12.10;99.90;;;;;;4911154;29;20025;-69
2023/02/19 10:40:46;;;;;;;1.30;0.50;;;12.20;99.90;;;;;;4904319;29;20037;-70
2023/02/19 10:43:30;;;;;;;1.92;0.65;;;12.20;99.90;;;;;;4904299;29;20079;-72
2023/02/19 10:45:56;;;;;;;2.13;0.55;;;12.30;99.90;;;;;;4904548;29;20021;-70
2023/02/19 10:48:26;;;;;;;2.65;0.60;;;12.40;99.90;;;;;;4904256;29;20029;-69
2023/02/19 10:50:56;;;;;;;1.40;0.50;;;12.30;99.90;;;;;;4896880;29;20123;-71
2023/02/19 10:53:34;;;;;;;2.15;0.40;;;12.30;99.90;;;;;;4906737;29;20029;-70
2023/02/19 10:56:09;;;;;;;1.45;0.50;;;12.30;99.90;;;;;;4905376;29;20032;-72
2023/02/19 10:58:36;;;;;;;1.45;0.55;;;12.30;99.90;;;;;;4901696;29;20059;-69
2023/02/19 11:01:32;;;;;;;2.45;0.70;;;12.30;99.90;;;;;;4908808;29;20088;-69
2023/02/19 11:04:17;;;;;;;1.17;0.45;;;12.30;99.90;;;;;;4895577;29;20043;-74
2023/02/19 11:06:43;;;;;;;2.70;0.57;;;12.20;99.90;;;;;;4897828;29;20028;-70
2023/02/19 11:09:30;;;;;;;0.95;0.43;;;12.20;99.90;;;;;;4899382;29;20025;-70
2023/02/19 11:11:57;;;;;;;1.17;0.30;;;12.20;99.90;;;;;;4906708;29;20035;-71
2023/02/19 11:14:24;;;;;;;2.28;0.65;;;12.30;99.90;;;;;;4911727;29;20032;-72
2023/02/19 11:16:56;;;;;;;1.67;0.45;;;12.40;99.90;;;;;;4915337;29;20047;-72
2023/02/19 11:19:36;;;;;;;2.25;0.60;;;12.40;99.90;;;;;;4881611;29;20029;-70
2023/02/19 11:22:17;;;;;;;2.20;0.73;;;12.50;99.90;;;;;;4898107;29;20032;-73
2023/02/19 11:24:50;;;;;;;1.58;0.40;;;12.60;99.90;;;;;;4919479;29;20031;-73
2023/02/19 11:27:19;;;;;;;2.13;0.65;;;12.60;99.90;;;;;;4915752;29;20039;-75
2023/02/19 11:29:45;;;;;;;2.72;0.60;;;12.60;99.90;;;;;;4876666;29;20021;-71
2023/02/19 11:32:19;;;;;;;2.40;0.73;;;12.60;99.90;;;;;;4894692;29;20120;-71
2023/02/19 11:34:46;;;;;;;2.55;0.73;;;12.60;99.90;;;;;;4884655;29;20053;-72
2023/02/19 11:37:13;;;;;;;2.67;0.65;;;12.60;99.90;;;;;;4894642;29;20025;-71
2023/02/19 11:39:41;;;;;;;3.63;1.10;;;12.60;99.90;;;;;;4884397;29;20485;-69
2023/02/19 11:42:09;;;;;;;3.15;0.68;;;12.50;99.90;;;;;;4884585;29;20033;-70
2023/02/19 11:45:07;;;;;;;3.30;0.77;;;12.50;99.90;;;;;;4894268;29;20032;-69
2023/02/19 11:48:22;;;;;;;2.80;0.70;;;12.60;99.90;;;;;;4869814;29;20513;-72
2023/02/19 11:50:52;;;;;;;2.53;0.85;;;12.50;99.90;;;;;;4859356;29;20406;-73
2023/02/19 11:53:25;;;;;;;1.85;0.52;;;12.50;99.90;;;;;;4875257;29;20561;-73
2023/02/19 11:56:22;;;;;;;1.60;0.47;;;12.60;99.90;;;;;;4902070;29;20044;-72
2023/02/19 11:58:53;;;;;;;2.72;0.65;;;12.50;99.90;;;;;;4887092;29;20423;-69
2023/02/19 12:01:25;;;;;;;1.95;0.70;;;12.50;99.90;;;;;;4867438;29;20029;-71
2023/02/19 12:04:15;;;;;;;1.77;0.60;;;12.50;99.90;;;;;;4867538;29;20093;-69
2023/02/19 12:07:02;;;;;;;3.13;0.68;;;12.60;99.90;;;;;;4898800;29;20032;-71
2023/02/19 12:10:05;;;;;;;1.67;0.45;;;12.60;99.90;;;;;;4872614;29;20033;-69
2023/02/19 12:12:36;;;;;;;1.08;0.52;;;12.80;99.90;;;;;;4886757;29;20060;-71
2023/02/19 12:15:14;;;;;;;1.30;0.50;;;12.80;99.90;;;;;;4896207;29;20490;-70
2023/02/19 12:18:04;;;;;;;2.63;0.77;;;12.80;99.90;;;;;;4902412;29;20032;-69
2023/02/19 12:21:05;;;;;;;2.50;0.70;;;12.70;99.90;;;;;;4883496;29;20028;-68
2023/02/19 12:23:36;;;;;;;2.75;0.55;;;12.80;99.90;;;;;;4883966;29;20029;-68
2023/02/19 12:26:08;;;;;;;2.42;0.85;;;12.80;99.90;;;;;;4890066;29;20052;-72
2023/02/19 12:28:42;;;;;;;2.50;0.70;;;12.90;99.90;;;;;;4894962;29;20064;-69
2023/02/19 12:31:27;;;;;;;2.33;0.63;;;13.00;99.90;;;;;;4866956;29;20037;-69
2023/02/19 12:34:11;;;;;;;2.55;0.50;;;13.00;99.90;;;;;;4883506;29;20036;-69
2023/02/19 12:36:59;;;;;;;2.45;0.68;;;13.00;99.90;;;;;;4892404;29;20035;-69
2023/02/19 12:39:46;;;;;;;0.90;0.50;;;13.00;99.90;;;;;;4884499;29;20093;-67
2023/02/19 12:42:37;;;;;;;2.20;0.55;;;12.90;99.90;;;;;;4901706;29;20568;-70
2023/02/19 12:45:15;;;;;;;2.22;0.60;;;13.00;99.90;;;;;;4866493;29;20035;-70
2023/02/19 12:47:43;;;;;;;1.08;0.52;;;13.20;99.90;;;;;;4885128;29;20037;-70
2023/02/19 12:50:11;;;;;;;1.83;0.95;;;13.30;99.90;;;;;;4884572;29;20053;-68
2023/02/19 12:52:41;;;;;;;2.22;0.77;;;13.30;99.90;;;;;;4866723;29;20029;-69
2023/02/19 12:55:27;;;;;;;3.08;0.60;;;13.30;99.90;;;;;;4882942;29;20036;-66
2023/02/19 12:57:55;;;;;;;2.55;0.70;;;13.10;99.90;;;;;;4894054;29;20033;-68
2023/02/19 13:00:40;;;;;;;1.58;0.52;;;13.00;99.90;;;;;;4892867;29;20482;-68
2023/02/19 13:03:25;;;;;;;3.08;0.70;;;13.10;99.90;;;;;;4902790;29;20043;-67
2023/02/19 13:06:06;;;;;;;2.28;0.80;;;13.00;99.90;;;;;;4896819;29;20033;-66
2023/02/19 13:08:38;;;;;;;3.28;0.95;;;12.80;99.90;;;;;;4893051;29;20510;-73
2023/02/19 13:11:38;;;;;;;0.90;0.60;;;12.80;99.90;;;;;;4886972;29;20033;-68
2023/02/19 13:14:13;;;;;;;2.00;0.80;;;12.80;99.90;;;;;;4872971;29;20042;-67
2023/02/19 13:16:44;;;;;;;2.30;0.70;;;12.70;99.90;;;;;;4913899;29;20025;-67
2023/02/19 13:19:13;;;;;;;1.40;0.68;;;12.60;99.90;;;;;;4906734;29;20103;-67
2023/02/19 13:24:36;;;;;;;1.77;0.80;;;12.70;99.90;;;;;;4890126;29;20860;-67
2023/02/19 13:27:27;;;;;;;2.80;0.77;;;12.70;99.90;;;;;;4882205;29;20068;-67
2023/02/19 13:30:02;;;;;;;3.35;1.15;;;12.60;99.90;;;;;;4882769;29;20028;-67
2023/02/19 13:32:57;;;;;;;3.33;1.20;;;12.50;99.90;;;;;;4866023;29;20565;-68
2023/02/19 13:35:41;;;;;;;2.97;0.68;;;12.40;99.90;;;;;;4883319;29;20028;-68
2023/02/19 13:38:11;;;;;;;1.38;0.70;;;12.40;99.90;;;;;;4888252;29;20037;-67
2023/02/19 13:40:41;;;;;;;1.50;0.60;;;12.40;99.90;;;;;;4866126;29;20128;-67
2023/02/19 13:43:22;;;;;;;2.72;0.90;;;12.50;99.90;;;;;;4888131;29;20028;-67
2023/02/19 13:45:55;;;;;;;2.50;0.90;;;12.60;99.90;;;;;;4882791;29;20057;-67
2023/02/19 13:48:25;;;;;;;3.22;0.70;;;12.60;99.90;;;;;;4869128;29;20040;-67
2023/02/19 13:51:17;;;;;;;2.08;0.70;;;12.60;99.90;;;;;;4886343;29;20102;-67
2023/02/19 13:53:50;;;;;;;2.28;0.68;;;12.60;99.90;;;;;;4894927;29;20465;-67
2023/02/19 13:56:34;;;;;;;2.20;0.82;;;12.50;99.90;;;;;;4879485;29;20494;-67
2023/02/19 13:59:18;;;;;;;;;;;12.50;99.90;;;;;;4870222;29;20036;-68
2023/02/19 14:01:50;;;;;;;1.45;0.52;;;12.40;99.90;;;;;;4885900;29;19939;-68
2023/02/19 14:04:23;;;;;;;1.25;0.73;;;12.50;99.90;;;;;;4869760;29;20051;-67
2023/02/19 14:07:03;;;;;;;1.88;0.60;;;12.50;99.90;;;;;;4898312;29;20024;-68
2023/02/19 14:09:38;;;;;;;3.60;1.10;;;12.50;99.90;;;;;;4876188;29;20029;-68
2023/02/19 14:12:10;;;;;;;2.00;0.90;;;12.50;99.90;;;;;;4889889;29;20029;-67
2023/02/19 14:14:45;;;;;;;1.92;0.60;;;12.50;99.90;;;;;;4886039;29;20025;-68
2023/02/19 14:17:27;;;;;;;3.78;1.15;;;12.60;99.90;;;;;;4868855;29;20120;-68
2023/02/19 14:20:03;;;;;;;3.53;0.80;;;12.50;99.90;;;;;;4904268;29;20017;-67
2023/02/19 14:22:44;;;;;;;1.90;0.70;;;12.50;99.90;;;;;;4887075;29;20042;-67